EDT,Max TemperatureF,Mean TemperatureF,Min TemperatureF,Max Dew PointF,MeanDew PointF,Min DewpointF,Max Humidity, Mean Humidity, Min Humidity, Max Sea Level PressureIn, Mean Sea Level PressureIn, Min Sea Level PressureIn, Max VisibilityMiles, Mean VisibilityMiles, Min VisibilityMiles, Max Wind SpeedMPH, Mean Wind SpeedMPH, Max Gust SpeedMPH,PrecipitationIn, CloudCover, Events, WindDirDegrees
2012-10-1,60,58,55,55,50,45,94,79,63,29.86,29.74,29.64,10,8,2,17,10,23,0.46,4,,42
2012-10-2,60,56,53,55,54,52,94,91,82,29.92,29.76,29.65,10,6,1,15,8,21,0.06,8,,240
2012-10-3,73,64,55,55,52,48,94,71,41,30.14,30.04,29.92,10,8,2,15,9,20,0.00,3,,197
2012-10-4,77,66,55,59,54,50,88,71,47,30.24,30.19,30.14,10,10,10,15,7,21,0.00,1,,194
2012-10-5,66,54,42,55,50,39,94,81,68,30.17,30.12,30.00,10,9,3,16,7,26,0.58,3,Thunderstorm,340
2012-10-6,55,48,42,39,36,32,87,63,47,30.20,30.17,30.13,10,10,10,12,8,,0.01,4,,324
2012-10-7,53,45,37,37,35,30,87,65,47,30.24,30.20,30.17,10,10,5,14,6,17,0.00,4,,328
2012-10-8,55,46,37,36,35,32,93,79,44,30.23,30.18,30.14,10,9,5,4,1,,0.00,0,,132
2012-10-9,62,48,35,43,38,32,93,72,42,30.17,30.10,29.99,10,10,8,15,5,20,0.00,0,,176
2012-10-10,55,46,37,45,36,27,82,62,35,30.28,30.15,29.98,10,10,10,17,8,26,0.00,2,,296
2012-10-11,60,46,33,39,33,30,87,65,39,30.29,30.26,30.20,10,10,10,10,2,,0.00,0,,220
2012-10-12,68,57,46,46,44,39,93,71,43,30.35,30.28,30.20,10,10,4,10,3,,0.00,3,,74
2012-10-13,75,62,48,64,54,43,88,76,65,30.30,30.16,30.01,10,10,9,17,8,23,0.00,2,,166
2012-10-14,73,68,64,63,61,57,88,76,57,30.00,29.87,29.76,10,10,8,28,17,40,0.01,4,,192
2012-10-15,64,55,46,48,42,39,82,57,42,30.00,29.99,29.97,10,10,10,14,9,22,0.00,0,,311
2012-10-16,69,54,39,48,44,36,93,67,43,30.01,29.91,29.77,10,9,1,16,4,18,0.00,0,,161
2012-10-17,73,64,55,54,49,46,88,61,41,29.80,29.68,29.48,10,10,8,25,12,34,0.16,2,Thunderstorm,182
2012-10-18,64,56,48,54,42,30,94,62,28,29.69,29.64,29.50,10,10,5,29,12,40,0.12,2,,222
2012-10-19,53,50,46,45,39,34,87,67,47,29.79,29.66,29.59,10,10,8,18,11,26,0.02,6,,225
2012-10-20,55,50,44,45,43,39,93,78,67,30.00,29.90,29.79,10,10,5,13,7,17,0.00,6,,238
2012-10-21,46,44,42,43,41,39,93,86,81,30.07,30.03,30.00,10,10,7,9,4,,0.00,0,,133
2012-10-22,75,68,62,55,52,50,68,61,50,30.11,30.08,30.05,10,10,10,17,8,25,0.00,5,,183
2012-10-23,77,68,59,55,52,46,63,53,47,30.09,30.04,29.99,10,10,10,17,10,22,0.00,1,,190
2012-10-24,78,69,60,59,52,48,72,59,44,30.11,30.07,30.01,10,10,9,15,8,18,0.00,0,,184
2012-10-25,77,68,59,57,54,48,72,60,50,30.04,29.98,29.92,10,10,5,17,8,26,0.00,1,,180
2012-10-26,68,55,42,54,41,37,93,80,60,30.23,30.17,29.97,10,8,2,17,10,25,0.12,7,,347
2012-10-27,55,46,37,37,33,30,81,63,47,30.18,30.15,30.10,10,10,10,15,10,23,0.00,2,,358
2012-10-28,53,45,37,37,32,28,87,65,44,30.15,30.13,30.10,10,10,10,17,9,24,0.00,1,,349
2012-10-29,53,44,35,30,29,27,81,57,35,30.17,30.10,29.96,10,10,10,23,12,34,0.00,0,,338
2012-10-30,46,42,39,30,28,27,65,55,46,29.95,29.82,29.77,10,10,10,26,17,32,0.00,4,,323
2012-10-31,51,42,33,32,28,25,75,60,47,29.93,29.86,29.81,10,10,10,16,10,26,0.00,0,,299